Gary Sanchez

Gary Sanchez

Statistiques 2022

  • Courses courues : 100
  • Nb de victoires : 13
  • Nb de places : 45
  • Écart gagnant : 13
  • Réussite à la gagne : 13%
  • Réussite à la place : 45%
Musique : 7p 2p 13p 13p 2p 5p 2p 4p 10p 7p 3p 3p 1p 2p 3p 3p 6p 3p
DateRangCatégorieAlloc.Dist.HippodromeChevalPoidsSpé.
24/09/22 7 Galop 18 000€ Toulouse Desimone 58 Plat
18/09/22 2 Galop 45 000€ Bordeaux Le Bouscat Safwah 58 Plat
17/09/22 13 Galop 18 000€ Bordeaux Le Bouscat Dream Bahama 56 Plat
17/09/22 13 Galop 15 000€ Bordeaux Le Bouscat Fevrier du Pecos 53,5 Plat
17/09/22 2 Galop 12 000€ Bordeaux Le Bouscat Rumesnil 56 Plat
11/09/22 5 Galop 16 000€ Dax Allez Saint Lon 57 Plat
11/09/22 2 Galop 12 000€ Dax Batak 58 Plat
11/09/22 4 Galop 14 000€ Dax Al Awal (Ar) 59 Plat
28/08/22 10 Galop 18 000€ Mont De Marsan Allez Saint Lon 58 Plat
28/08/22 7 Galop 18 000€ Mont De Marsan Jaizana El Ahlem 56 Plat
28/08/22 3 Galop 20 000€ Mont De Marsan Maldives Pompadour 55,5 Plat
28/08/22 3 Galop 18 000€ Mont De Marsan Dream Bahama 57 Plat
24/08/22 1 Galop 12 000€ Dax Jasmin Dore 56 Plat
21/08/22 2 Galop 19 000€ Pompadour Islandor 56 Plat
21/08/22 3 Galop 9 500€ Pompadour Khelle Tartare 56,5 Plat
19/08/22 3 Galop 18 000€ La Teste De Buch Nazwa 56 Plat
19/08/22 6 Galop 20 000€ La Teste De Buch Majoie des Forges 56 Plat
17/08/22 3 Galop 25 000€ Be-Mons Safwah 55,5 Plat
17/08/22 1 Galop 7 000€ Be-Mons Assayel (Lib) 62,5 Plat
17/08/22 1 Galop 7 000€ Be-Mons Al Awal (Ar) 59 Plat
15/08/22 3 Galop 16 000€ Vichy Flor Tourettes 56,5 Plat
15/08/22 6 Galop 18 000€ Vichy Majdy 58 Plat
14/08/22 2 Mixte 10 000€ Royan La Palmyre Deau Coeur 56,5 Plat
08/08/22 1 Galop 16 000€ La Teste De Buch Fleur du Soleil 56 Plat
07/08/22 2 Galop 6 800€ Spa-San Sebastian Boujoc 60 Plat
06/08/22 1 Galop 8 500€ Pompadour Islandor 56,5 Plat
01/08/22 2 Galop 12 000€ Dax Khelle Tartare 56,5 Plat
31/07/22 2 Galop 16 000€ La Teste De Buch Autumn Pride 62 Plat
29/07/22 11 Galop 12 000€ Mont De Marsan Larmour 58 Plat
29/07/22 3 Galop 20 000€ Mont De Marsan Giboulee du Jura 55 Plat
26/07/22 6 Galop 18 000€ Dax Nadia du Loup 56 Plat
26/07/22 1 Galop 18 000€ Dax Monaasib (Ar) 56 Plat
20/07/22 8 Galop 12 500€ Mont De Marsan Zokoa 56 Plat
17/07/22 5 Galop 9 000€ Pompadour Not A Lady 60 Plat
13/07/22 1 Galop 25 000€ La Teste De Buch Mezown 57 Plat
13/07/22 5 Galop 16 000€ La Teste De Buch Giboulee du Jura 59,5 Plat
10/07/22 8 Galop 5 000€ Spa-San Sebastian Jendila 55,5 Plat
03/07/22 3 Galop 12 000€ Pompadour Irlande des Vialettes 57 Plat
03/07/22 5 Galop 13 000€ Pompadour Sansa de Bojour 56,5 Plat
28/06/22 11 Galop 12 000€ Toulouse Dubai Forever 58,5 Plat
26/06/22 9 Galop 8 500€ Langon Site Seeing 54,5 Plat
26/06/22 3 Galop 9 000€ Langon Not A Lady 59,5 Plat
26/06/22 3 Galop 7 500€ Langon Zoffwaltz 54,5 Plat
26/06/22 5 Galop 12 000€ Langon Murshid 56 Plat
26/06/22 3 Galop 9 500€ Langon Spain Sage 59,5 Plat
26/06/22 9 Galop 9 500€ Langon Stormy Bay 54,5 Plat
26/06/22 5 Galop 12 000€ Langon Mayssour Al Cham 58 Plat
24/06/22 1 Galop 14 000€ Dax Safwah 63,5 Plat
24/06/22 13 Galop 12 000€ Dax Indian Deal 59 Plat
22/06/22 2 Galop 8 000€ Spa-San Sebastian Felowah 56 Plat